Time;durP1;ratioP1;P1;durP2;ratioP2;P2;SDS_P1;SDS_P2;PMS_P1;PMS_P2;Temp;Humidity;BMP_temperature;BMP_pressure;BME280_temperature;BME280_humidity;BME280_pressure;Samples;Min_cycle;Max_cycle;Signal;HPM_P1;HPM_P2
2022/11/16 00:00:22;;;;;;;;;;;8.70;99.90;;;;;;5094295;28;19908;-76
2022/11/16 00:02:50;;;;;;;;;;;8.70;99.90;;;;;;5094663;28;20345;-75
2022/11/16 00:05:17;;;;;;;;;;;8.70;99.90;;;;;;5094039;28;19958;-75
2022/11/16 00:07:43;;;;;;;;;;;8.70;99.90;;;;;;5094233;28;19923;-75
2022/11/16 00:10:10;;;;;;;;;;;8.60;99.90;;;;;;5092906;28;19912;-75
2022/11/16 00:12:36;;;;;;;;;;;8.60;99.90;;;;;;5093979;28;20323;-75
2022/11/16 00:15:02;;;;;;;;;;;8.60;99.90;;;;;;5093979;28;19915;-75
2022/11/16 00:17:28;;;;;;;;;;;8.60;99.90;;;;;;5094912;28;20277;-75
2022/11/16 00:19:53;;;;;;;;;;;8.50;99.90;;;;;;5093937;28;19908;-75
2022/11/16 00:22:19;;;;;;;;;;;8.50;99.90;;;;;;5093789;28;19923;-75
2022/11/16 00:24:45;;;;;;;;;;;8.50;99.90;;;;;;5094541;28;19915;-75
2022/11/16 00:27:10;;;;;;;;;;;8.50;99.90;;;;;;5093568;28;20440;-75
2022/11/16 00:29:36;;;;;;;;;;;8.40;99.90;;;;;;5092742;28;20076;-75
2022/11/16 00:32:02;;;;;;;;;;;8.40;99.90;;;;;;5093511;28;19919;-75
2022/11/16 00:34:27;;;;;;;;;;;8.40;99.90;;;;;;5092716;28;19908;-73
2022/11/16 00:36:53;;;;;;;;;;;8.40;99.90;;;;;;5094799;28;19916;-73
2022/11/16 00:39:19;;;;;;;;;;;8.40;99.90;;;;;;5092946;28;20800;-74
2022/11/16 00:41:45;;;;;;;;;;;8.40;99.90;;;;;;5094047;28;19908;-74
2022/11/16 00:44:11;;;;;;;;;;;8.40;99.90;;;;;;5093202;28;19908;-74
2022/11/16 00:46:37;;;;;;;;;;;8.40;99.90;;;;;;5092897;28;19958;-74
2022/11/16 00:49:04;;;;;;;;;;;8.40;99.90;;;;;;5092874;28;19962;-74
2022/11/16 00:51:30;;;;;;;;;;;8.40;99.90;;;;;;5092481;28;20015;-74
2022/11/16 00:53:55;;;;;;;;;;;8.40;99.90;;;;;;5093741;28;20332;-74
2022/11/16 00:56:21;;;;;;;;;;;8.40;99.90;;;;;;5093015;28;19912;-74
2022/11/16 00:58:46;;;;;;;;;;;8.40;99.90;;;;;;5093558;28;19915;-73
2022/11/16 01:01:12;;;;;;;;;;;8.40;99.90;;;;;;5092794;28;19908;-73
2022/11/16 01:03:38;;;;;;;;;;;8.40;99.90;;;;;;5093195;28;20357;-74
2022/11/16 01:06:05;;;;;;;;;;;8.40;99.90;;;;;;5092948;28;19927;-74
2022/11/16 01:08:31;;;;;;;;;;;8.40;99.90;;;;;;5093059;28;19939;-73
2022/11/16 01:12:07;;;;;;;;;;;8.40;99.90;;;;;;5093455;28;20373;-75
2022/11/16 01:13:43;;;;;;;;;;;8.30;99.90;;;;;;5092638;28;20002;-74
2022/11/16 01:16:09;;;;;;;;;;;8.30;99.90;;;;;;5093330;28;19943;-73
2022/11/16 01:18:35;;;;;;;;;;;8.30;99.90;;;;;;5092793;28;19912;-74
2022/11/16 01:21:00;;;;;;;;;;;8.30;99.90;;;;;;5092595;28;19931;-74
2022/11/16 01:23:26;;;;;;;;;;;8.20;99.90;;;;;;5093428;28;20349;-73
2022/11/16 01:26:00;;;;;;;;;;;8.20;99.90;;;;;;5093645;28;19936;-73
2022/11/16 01:28:29;;;;;;;;;;;8.20;99.90;;;;;;5093632;28;20387;-73
2022/11/16 01:30:55;;;;;;;;;;;8.10;99.90;;;;;;5093835;28;19919;-73
2022/11/16 01:33:20;;;;;;;;;;;8.10;99.90;;;;;;5091675;28;19908;-74
2022/11/16 01:35:46;;;;;;;;;;;8.00;99.90;;;;;;5093702;28;20299;-74
2022/11/16 01:38:12;;;;;;;;;;;8.00;99.90;;;;;;5092884;28;19983;-74
2022/11/16 01:40:37;;;;;;;;;;;7.90;99.90;;;;;;5092717;28;19912;-73
2022/11/16 01:43:04;;;;;;;;;;;7.90;99.90;;;;;;5091724;28;19908;-74
2022/11/16 01:45:36;;;;;;;;;;;7.90;99.90;;;;;;5093526;28;19919;-74
2022/11/16 01:48:02;;;;;;;;;;;7.90;99.90;;;;;;5091374;28;19962;-75
2022/11/16 01:50:27;;;;;;;;;;;7.80;99.90;;;;;;5093696;28;19914;-74
2022/11/16 01:52:56;;;;;;;;;;;7.90;99.90;;;;;;5093360;28;20304;-73
2022/11/16 01:55:22;;;;;;;;;;;7.80;99.90;;;;;;5092566;28;19943;-73
2022/11/16 01:57:48;;;;;;;;;;;7.80;99.90;;;;;;5093260;28;19951;-74
2022/11/16 02:00:14;;;;;;;;;;;7.80;99.90;;;;;;5091324;28;19958;-74
2022/11/16 02:02:40;;;;;;;;;;;7.90;99.90;;;;;;5092661;28;20292;-74
2022/11/16 02:05:06;;;;;;;;;;;7.90;99.90;;;;;;5092301;28;19908;-74
2022/11/16 02:10:56;;;;;;;;;;;7.90;99.90;;;;;;5092879;28;19946;-73
2022/11/16 02:13:40;;;;;;;;;;;7.90;99.90;;;;;;5092217;28;20371;-73
2022/11/16 02:16:15;;;;;;;;;;;7.90;99.90;;;;;;5092353;28;19915;-73
2022/11/16 02:18:47;;;;;;;;;;;7.90;99.90;;;;;;5093040;28;19912;-73
2022/11/16 02:21:32;;;;;;;;;;;7.90;99.90;;;;;;5092343;28;19908;-73
2022/11/16 02:24:00;;;;;;;;;;;7.90;99.90;;;;;;5093486;28;20311;-73
2022/11/16 02:26:35;;;;;;;;;;;7.80;99.90;;;;;;5092899;28;19914;-73
2022/11/16 02:29:13;;;;;;;;;;;7.70;99.90;;;;;;5092846;28;19912;-74
2022/11/16 02:31:47;;;;;;;;;;;7.70;99.90;;;;;;5092894;28;19918;-73
2022/11/16 02:34:15;;;;;;;;;;;7.70;99.90;;;;;;5091940;28;19908;-73
2022/11/16 02:36:43;;;;;;;;;;;7.70;99.90;;;;;;5092912;28;19909;-73
2022/11/16 02:39:21;;;;;;;;;;;7.70;99.90;;;;;;5092347;28;19912;-74
2022/11/16 02:41:47;;;;;;;;;;;7.60;99.90;;;;;;5092767;28;19908;-73
2022/11/16 02:44:17;;;;;;;;;;;7.50;99.90;;;;;;5092452;28;20345;-73
2022/11/16 02:46:45;;;;;;;;;;;7.50;99.90;;;;;;5092803;28;19954;-73
2022/11/16 02:49:14;;;;;;;;;;;7.40;99.90;;;;;;5090833;28;19919;-74
2022/11/16 02:51:40;;;;;;;;;;;7.30;99.90;;;;;;5092411;28;19977;-73
2022/11/16 02:54:11;;;;;;;;;;;7.30;99.90;;;;;;5095371;28;20292;-75
2022/11/16 02:57:00;;;;;;;;;;;7.30;99.90;;;;;;5096814;28;20340;-73
2022/11/16 02:59:28;;;;;;;;;;;7.30;99.90;;;;;;5095518;28;19995;-72
2022/11/16 03:01:59;;;;;;;;;;;7.20;99.90;;;;;;5096449;28;19947;-73
2022/11/16 03:04:31;;;;;;;;;;;7.10;99.90;;;;;;5096027;28;19966;-73
2022/11/16 03:06:57;;;;;;;;;;;7.00;99.90;;;;;;5096091;28;19973;-73
2022/11/16 03:09:26;;;;;;;;;;;7.00;99.90;;;;;;5095196;28;19916;-73
2022/11/16 03:11:59;;;;;;;;;;;6.90;99.90;;;;;;5096073;28;20278;-73
2022/11/16 03:14:32;;;;;;;;;;;6.80;99.90;;;;;;5094579;28;19912;-73
2022/11/16 03:16:59;;;;;;;;;;;6.80;99.90;;;;;;5095067;28;19908;-73
2022/11/16 03:19:35;;;;;;;;;;;6.70;99.90;;;;;;5095737;28;20428;-72
2022/11/16 03:22:13;;;;;;;;;;;6.60;99.90;;;;;;5096099;28;20108;-73
2022/11/16 03:24:39;;;;;;;;;;;6.60;99.90;;;;;;5095946;28;20006;-74
2022/11/16 03:27:10;;;;;;;;;;;6.50;99.90;;;;;;5095558;28;19908;-74
2022/11/16 03:29:41;;;;;;;;;;;6.50;99.90;;;;;;5096119;28;19919;-74
2022/11/16 03:32:13;;;;;;;;;;;6.50;99.90;;;;;;5095703;28;19912;-75
2022/11/16 03:34:41;;;;;;;;;;;6.30;99.90;;;;;;5095809;28;19908;-74
2022/11/16 03:37:07;;;;;;;;;;;6.30;99.90;;;;;;5095078;28;20418;-75
2022/11/16 03:39:35;;;;;;;;;;;6.40;99.90;;;;;;5095391;28;19918;-74
2022/11/16 03:42:05;;;;;;;;;;;6.30;99.90;;;;;;5095901;28;19914;-72
2022/11/16 03:44:30;;;;;;;;;;;6.30;99.90;;;;;;5095540;28;20326;-73
2022/11/16 03:46:56;;;;;;;;;;;6.40;99.90;;;;;;5095416;28;19965;-73
2022/11/16 03:49:22;;;;;;;;;;;6.40;99.90;;;;;;5095072;28;19912;-73
2022/11/16 03:51:48;;;;;;;;;;;6.30;99.90;;;;;;5093967;28;19913;-73
2022/11/16 03:54:14;;;;;;;;;;;6.30;99.90;;;;;;5094636;28;20316;-73
2022/11/16 03:56:39;;;;;;;;;;;6.30;99.90;;;;;;5095190;28;19912;-73
2022/11/16 03:59:05;;;;;;;;;;;6.20;99.90;;;;;;5095201;28;19953;-73
2022/11/16 04:01:30;;;;;;;;;;;6.10;99.90;;;;;;5094884;28;19934;-74
2022/11/16 04:03:56;;;;;;;;;;;6.10;99.90;;;;;;5094584;28;19914;-74
2022/11/16 04:25:43;;;;;;;;;;;5.60;99.90;;;;;;5095158;28;19915;-74
2022/11/16 04:28:17;;;;;;;;;;;5.60;99.90;;;;;;5094305;28;19912;-73
2022/11/16 04:38:58;;;;;;;;;;;5.50;99.90;;;;;;5094633;28;19931;-73
2022/11/16 04:44:07;;;;;;;;;;;5.50;99.90;;;;;;5094616;28;19915;-74
2022/11/16 04:49:17;;;;;;;;;;;5.50;99.90;;;;;;5093536;28;20348;-75
2022/11/16 04:51:43;;;;;;;;;;;5.50;99.90;;;;;;5094400;28;19912;-73
2022/11/16 04:54:08;;;;;;;;;;;5.50;99.90;;;;;;5094503;28;19909;-73
2022/11/16 04:56:34;;;;;;;;;;;5.50;99.90;;;;;;5093368;28;20391;-73
2022/11/16 04:58:59;;;;;;;;;;;5.50;99.90;;;;;;5094264;28;19969;-73
2022/11/16 05:04:29;;;;;;;;;;;5.40;99.90;;;;;;5070594;28;19924;-73
2022/11/16 05:06:54;;;;;;;;;;;5.40;99.90;;;;;;5054146;28;19949;-73
2022/11/16 05:09:20;;;;;;;;;;;5.30;99.90;;;;;;5070923;28;20022;-73
2022/11/16 05:11:46;;;;;;;;;;;5.30;99.90;;;;;;5071304;28;20485;-73
2022/11/16 05:14:13;;;;;;;;;;;5.20;99.90;;;;;;5070383;28;20293;-74
2022/11/16 05:16:39;;;;;;;;;;;5.20;99.90;;;;;;5070005;28;19919;-73
2022/11/16 05:21:49;;;;;;;;;;;5.00;99.90;;;;;;5071459;28;19951;-74
2022/11/16 05:24:32;;;;;;;;;;;5.00;99.90;;;;;;5070724;28;19909;-75
2022/11/16 05:26:58;;;;;;;;;;;4.90;99.90;;;;;;5071262;28;19939;-74
2022/11/16 05:29:24;;;;;;;;;;;4.90;99.90;;;;;;5070386;28;19916;-73
2022/11/16 05:31:49;;;;;;;;;;;4.90;99.90;;;;;;5070937;28;19923;-73
2022/11/16 05:34:15;;;;;;;;;;;4.90;99.90;;;;;;5072880;28;19994;-75
2022/11/16 05:36:40;;;;;;;;;;;4.80;99.90;;;;;;5093356;28;19915;-74
2022/11/16 05:39:06;;;;;;;;;;;4.80;99.90;;;;;;5093368;28;20482;-73
2022/11/16 05:41:32;;;;;;;;;;;4.80;99.90;;;;;;5091643;28;19908;-73
2022/11/16 05:43:57;;;;;;;;;;;4.80;99.90;;;;;;5092121;28;19908;-74
2022/11/16 05:46:23;;;;;;;;;;;4.80;99.90;;;;;;5092769;28;19908;-73
2022/11/16 05:48:49;;;;;;;;;;;4.80;99.90;;;;;;5093270;28;19956;-74
2022/11/16 05:51:14;;;;;;;;;;;4.80;99.90;;;;;;5093224;28;20281;-73
2022/11/16 05:53:40;;;;;;;;;;;4.80;99.90;;;;;;5091323;28;19954;-74
2022/11/16 05:56:06;;;;;;;;;;;4.80;99.90;;;;;;5093320;28;19908;-74
2022/11/16 05:58:31;;;;;;;;;;;4.80;99.90;;;;;;5092371;28;19916;-73
2022/11/16 06:00:57;;;;;;;;;;;4.80;99.90;;;;;;5093111;28;19939;-72
2022/11/16 06:03:23;;;;;;;;;;;4.80;99.90;;;;;;5091425;28;19908;-73
2022/11/16 06:05:52;;;;;;;;;;;4.70;99.90;;;;;;5093088;28;20007;-72
2022/11/16 06:08:17;;;;;;;;;;;4.60;99.90;;;;;;5092595;28;19916;-74
2022/11/16 06:10:43;;;;;;;;;;;4.60;99.90;;;;;;5093036;28;19916;-73
2022/11/16 06:13:09;;;;;;;;;;;4.60;99.90;;;;;;5093188;28;19915;-72
2022/11/16 06:15:38;;;;;;;;;;;4.60;99.90;;;;;;5091154;28;19915;-73
2022/11/16 06:18:04;;;;;;;;;;;4.60;99.90;;;;;;5092496;28;19915;-72
2022/11/16 06:20:30;;;;;;;;;;;4.50;99.90;;;;;;5092082;28;19912;-73
2022/11/16 06:22:55;;;;;;;;;;;4.50;99.90;;;;;;5092993;28;19962;-73
2022/11/16 06:25:21;;;;;;;;;;;4.50;99.90;;;;;;5092875;28;19914;-73
2022/11/16 06:27:46;;;;;;;;;;;4.40;99.90;;;;;;5095981;28;19908;-72
2022/11/16 06:30:12;;;;;;;;;;;4.50;99.90;;;;;;5097024;28;19916;-73
2022/11/16 06:32:38;;;;;;;;;;;4.40;99.90;;;;;;5096396;28;19966;-73
2022/11/16 06:35:04;;;;;;;;;;;4.30;99.90;;;;;;5096905;28;19912;-73
2022/11/16 06:37:30;;;;;;;;;;;4.40;99.90;;;;;;5095048;28;19961;-73
2022/11/16 06:39:55;;;;;;;;;;;4.30;99.90;;;;;;5096430;28;19908;-73
2022/11/16 06:42:21;;;;;;;;;;;4.30;99.90;;;;;;5096082;28;19920;-74
2022/11/16 06:44:47;;;;;;;;;;;4.30;99.90;;;;;;5096554;28;19915;-73
2022/11/16 06:47:12;;;;;;;;;;;4.40;99.90;;;;;;5096639;28;19915;-73
2022/11/16 06:49:38;;;;;;;;;;;4.40;99.90;;;;;;5095714;28;20755;-73
2022/11/16 06:52:03;;;;;;;;;;;4.30;99.90;;;;;;5096513;28;19912;-74
2022/11/16 06:54:29;;;;;;;;;;;4.40;99.90;;;;;;5096373;28;19974;-74
2022/11/16 06:56:54;;;;;;;;;;;4.40;99.90;;;;;;5096189;28;19908;-74
2022/11/16 06:59:20;;;;;;;;;;;4.40;99.90;;;;;;5096306;28;19915;-73
2022/11/16 07:01:45;;;;;;;;;;;4.40;99.90;;;;;;5095846;28;19914;-73
2022/11/16 07:04:14;;;;;;;;;;;4.40;99.90;;;;;;5096079;28;19915;-73
2022/11/16 07:06:40;;;;;;;;;;;4.40;99.90;;;;;;5095849;28;19928;-74
2022/11/16 07:09:06;;;;;;;;;;;4.30;99.90;;;;;;5096060;28;20015;-74
2022/11/16 07:11:32;;;;;;;;;;;4.30;99.90;;;;;;5095626;28;19920;-74
2022/11/16 07:13:58;;;;;;;;;;;4.30;99.90;;;;;;5095724;28;19915;-73
2022/11/16 07:16:24;;;;;;;;;;;4.30;99.90;;;;;;5095501;28;19961;-75
2022/11/16 07:18:50;;;;;;;;;;;4.30;99.90;;;;;;5095861;28;20002;-73
2022/11/16 07:21:15;;;;;;;;;;;4.30;99.90;;;;;;5094718;28;19908;-74
2022/11/16 07:23:41;;;;;;;;;;;4.20;99.90;;;;;;5094835;28;19915;-73
2022/11/16 07:26:07;;;;;;;;;;;4.10;99.90;;;;;;5095640;28;19908;-74
2022/11/16 07:28:33;;;;;;;;;;;4.10;99.90;;;;;;5095466;28;19912;-74
2022/11/16 07:31:09;;;;;;;;;;;4.10;99.90;;;;;;5095870;28;19919;-74
2022/11/16 07:33:35;;;;;;;;;;;4.10;99.90;;;;;;5095430;28;19908;-73
2022/11/16 07:36:01;;;;;;;;;;;4.10;99.90;;;;;;5094461;28;20296;-74
2022/11/16 07:38:27;;;;;;;;;;;4.10;99.90;;;;;;5093993;28;20002;-73
2022/11/16 07:40:52;;;;;;;;;;;4.10;99.90;;;;;;5095549;28;19946;-73
2022/11/16 07:43:18;;;;;;;;;;;4.00;99.90;;;;;;5095577;28;19908;-74
2022/11/16 07:45:44;;;;;;;;;;;4.00;99.90;;;;;;5094964;28;20356;-74
2022/11/16 07:48:09;;;;;;;;;;;3.90;99.90;;;;;;5095211;28;19956;-74
2022/11/16 07:50:35;;;;;;;;;;;3.90;99.90;;;;;;5094790;28;20354;-74
2022/11/16 07:53:01;;;;;;;;;;;3.80;99.90;;;;;;5095448;28;19908;-74
2022/11/16 07:55:30;;;;;;;;;;;3.80;99.90;;;;;;5094547;28;19908;-73
2022/11/16 07:57:59;;;;;;;;;;;3.80;99.90;;;;;;5094961;28;19915;-74
2022/11/16 08:00:25;;;;;;;;;;;3.70;99.90;;;;;;5094732;28;19912;-75
2022/11/16 08:02:51;;;;;;;;;;;3.70;99.90;;;;;;5094849;28;19908;-73
2022/11/16 08:05:16;;;;;;;;;;;3.80;99.90;;;;;;5095088;28;19931;-74
2022/11/16 08:07:42;;;;;;;;;;;3.80;99.90;;;;;;5095101;28;19943;-74
2022/11/16 08:10:07;;;;;;;;;;;3.80;99.90;;;;;;5095062;28;20011;-74
2022/11/16 08:12:33;;;;;;;;;;;3.80;99.90;;;;;;5094123;28;19915;-74
2022/11/16 08:14:59;;;;;;;;;;;3.90;99.90;;;;;;5094757;28;19908;-74
2022/11/16 08:17:24;;;;;;;;;;;3.90;99.90;;;;;;5093486;28;20396;-74
2022/11/16 08:19:50;;;;;;;;;;;4.00;99.90;;;;;;5094581;28;19934;-75
2022/11/16 08:22:15;;;;;;;;;;;3.90;99.90;;;;;;5094052;28;19955;-75
2022/11/16 08:24:41;;;;;;;;;;;4.00;99.90;;;;;;5092658;28;19961;-75
2022/11/16 08:27:07;;;;;;;;;;;4.10;99.90;;;;;;5092546;28;19908;-75
2022/11/16 08:29:32;;;;;;;;;;;4.20;99.90;;;;;;5093633;28;19919;-76
2022/11/16 08:31:58;;;;;;;;;;;4.40;99.90;;;;;;5094223;28;19916;-74
2022/11/16 08:34:23;;;;;;;;;;;4.40;99.90;;;;;;5094754;28;19959;-74
2022/11/16 08:36:49;;;;;;;;;;;4.40;99.90;;;;;;5093517;28;19974;-74
2022/11/16 08:39:14;;;;;;;;;;;4.40;99.90;;;;;;5093727;28;19908;-74
2022/11/16 08:41:41;;;;;;;;;;;4.40;99.90;;;;;;5093693;28;19916;-74
2022/11/16 08:44:06;;;;;;;;;;;4.50;99.90;;;;;;5093979;28;19912;-73
2022/11/16 08:46:32;;;;;;;;;;;4.60;99.90;;;;;;5093354;28;20053;-74
2022/11/16 08:48:58;;;;;;;;;;;4.60;99.90;;;;;;5103764;28;20056;-74
2022/11/16 08:51:24;;;;;;;;;;;4.70;99.90;;;;;;5114394;28;20438;-74
2022/11/16 08:53:53;;;;;;;;;;;4.70;99.90;;;;;;5113696;28;20068;-74
2022/11/16 08:56:19;;;;;;;;;;;4.70;99.90;;;;;;5114257;28;19957;-74
2022/11/16 08:58:48;;;;;;;;;;;4.80;99.90;;;;;;5112502;28;19946;-74
2022/11/16 09:01:18;;;;;;;;;;;5.00;99.90;;;;;;5114050;28;20268;-74
2022/11/16 09:03:44;;;;;;;;;;;5.10;99.90;;;;;;5113609;28;19914;-75
2022/11/16 09:06:10;;;;;;;;;;;5.10;99.90;;;;;;5113526;28;19919;-74
2022/11/16 09:08:36;;;;;;;;;;;5.20;99.90;;;;;;5113316;28;19912;-75
2022/11/16 09:11:08;;;;;;;;;;;5.20;99.90;;;;;;5114176;28;19912;-75
2022/11/16 09:13:34;;;;;;;;;;;5.30;99.90;;;;;;5112797;28;19912;-76
2022/11/16 09:16:00;;;;;;;;;;;5.40;99.90;;;;;;5112593;28;19912;-73
2022/11/16 09:18:26;;;;;;;;;;;5.40;99.90;;;;;;5113892;28;19908;-73
2022/11/16 09:20:52;;;;;;;;;;;5.50;99.90;;;;;;5111845;28;19911;-73
2022/11/16 09:23:18;;;;;;;;;;;5.60;99.90;;;;;;5113722;28;19915;-74
2022/11/16 09:25:47;;;;;;;;;;;5.60;99.90;;;;;;5113377;28;20414;-74
2022/11/16 09:28:19;;;;;;;;;;;5.70;99.90;;;;;;5113770;28;20307;-73
2022/11/16 09:30:45;;;;;;;;;;;5.70;99.90;;;;;;5112782;28;20361;-73
2022/11/16 09:33:12;;;;;;;;;;;5.80;99.90;;;;;;5113612;28;19919;-73
2022/11/16 09:35:38;;;;;;;;;;;5.80;99.90;;;;;;5113102;28;19961;-73
2022/11/16 09:38:04;;;;;;;;;;;5.90;99.90;;;;;;5113392;28;19961;-73
2022/11/16 09:40:32;;;;;;;;;;;5.90;99.90;;;;;;5113081;28;19916;-75
2022/11/16 09:43:16;;;;;;;;;;;6.00;99.90;;;;;;5105559;28;19908;-73
2022/11/16 09:45:59;;;;;;;;;;;6.00;99.90;;;;;;5092630;28;19908;-75
2022/11/16 09:48:25;;;;;;;;;;;6.00;99.90;;;;;;5089111;28;19920;-73
2022/11/16 09:50:51;;;;;;;;;;;6.10;99.90;;;;;;5090249;28;19970;-73
2022/11/16 09:53:23;;;;;;;;;;;6.10;99.90;;;;;;5092822;28;19908;-74
2022/11/16 09:56:12;;;;;;;;;;;6.20;99.90;;;;;;5091456;28;19994;-75
2022/11/16 09:58:56;;;;;;;;;;;6.20;99.90;;;;;;5086197;28;19915;-75
2022/11/16 10:01:45;;;;;;;;;;;6.30;99.90;;;;;;5092419;28;19908;-74
2022/11/16 10:04:17;;;;;;;;;;;6.40;99.90;;;;;;5082379;28;20380;-74
2022/11/16 10:06:51;;;;;;;;;;;6.50;99.90;;;;;;5092033;28;19920;-73
2022/11/16 10:09:17;;;;;;;;;;;6.60;99.90;;;;;;5092382;28;19965;-75
2022/11/16 10:11:49;;;;;;;;;;;6.60;99.90;;;;;;5092186;28;20272;-75
2022/11/16 10:14:30;;;;;;;;;;;6.70;99.90;;;;;;5092510;28;19908;-74
2022/11/16 10:17:04;;;;;;;;;;;6.80;99.90;;;;;;5092573;28;20388;-75
2022/11/16 10:19:30;;;;;;;;;;;6.80;99.90;;;;;;5092867;28;19957;-76
2022/11/16 10:21:56;;;;;;;;;;;6.90;99.90;;;;;;5092552;28;19911;-75
2022/11/16 10:24:34;;;;;;;;;;;7.00;99.90;;;;;;5092571;28;19912;-75
2022/11/16 10:27:12;;;;;;;;;;;7.10;99.90;;;;;;5092503;28;19995;-75
2022/11/16 10:30:00;;;;;;;;;;;7.20;99.90;;;;;;5092156;28;19912;-76
2022/11/16 10:32:31;;;;;;;;;;;7.30;99.90;;;;;;5086679;28;19955;-75
2022/11/16 10:35:02;;;;;;;;;;;7.40;99.90;;;;;;5092262;28;19908;-75
2022/11/16 10:37:29;;;;;;;;;;;7.40;99.90;;;;;;5092079;28;19915;-75
2022/11/16 10:39:55;;;;;;;;;;;7.60;99.90;;;;;;5092009;28;19908;-75
2022/11/16 10:42:35;;;;;;;;;;;7.60;99.90;;;;;;5092108;28;19918;-75
2022/11/16 10:45:09;;;;;;;;;;;7.70;99.90;;;;;;5092275;28;20006;-75
2022/11/16 10:47:43;;;;;;;;;;;7.90;99.90;;;;;;5091400;28;20265;-76
2022/11/16 10:50:21;;;;;;;;;;;7.90;99.90;;;;;;5091815;28;19954;-76
2022/11/16 10:52:47;;;;;;;;;;;7.90;99.90;;;;;;5091935;28;20376;-74
2022/11/16 10:55:13;;;;;;;;;;;8.00;99.90;;;;;;5092143;28;19908;-76
2022/11/16 10:57:56;;;;;;;;;;;8.10;99.90;;;;;;5091622;28;19908;-75
2022/11/16 11:00:42;;;;;;;;;;;8.10;99.90;;;;;;5091715;28;20392;-75
2022/11/16 11:03:09;;;;;;;;;;;8.20;99.90;;;;;;5092109;28;19915;-74
2022/11/16 11:05:35;;;;;;;;;;;8.20;99.90;;;;;;5091379;28;19912;-74
2022/11/16 11:08:10;;;;;;;;;;;8.30;99.90;;;;;;5092005;28;19981;-75
2022/11/16 11:10:37;;;;;;;;;;;8.40;99.90;;;;;;5091148;28;19912;-75
2022/11/16 11:13:06;;;;;;;;;;;8.40;99.90;;;;;;5092221;28;19915;-75
2022/11/16 11:15:32;;;;;;;;;;;8.50;99.90;;;;;;5095553;28;19908;-76
2022/11/16 11:18:12;;;;;;;;;;;8.60;99.90;;;;;;5095750;28;19916;-76
2022/11/16 11:20:40;;;;;;;;;;;8.60;99.90;;;;;;5095305;28;20006;-74
2022/11/16 11:23:13;;;;;;;;;;;8.70;99.90;;;;;;5095743;28;19915;-74
2022/11/16 11:25:41;;;;;;;;;;;8.80;99.90;;;;;;5095358;28;19918;-74
2022/11/16 11:28:18;;;;;;;;;;;8.90;99.90;;;;;;5095377;28;19908;-74
2022/11/16 11:30:52;;;;;;;;;;;8.90;99.90;;;;;;5095395;28;19912;-74
2022/11/16 11:33:20;;;;;;;;;;;9.00;99.90;;;;;;5095178;28;19908;-74
2022/11/16 11:35:54;;;;;;;;;;;9.00;99.90;;;;;;5094991;28;19908;-74
2022/11/16 11:38:20;;;;;;;;;;;9.00;99.90;;;;;;5094044;28;19912;-75
2022/11/16 11:40:54;;;;;;;;;;;9.00;99.90;;;;;;5094519;28;19961;-74
2022/11/16 11:43:22;;;;;;;;;;;9.00;99.90;;;;;;5095379;28;19957;-74
2022/11/16 11:45:51;;;;;;;;;;;9.00;99.90;;;;;;5094923;28;19908;-75
2022/11/16 11:53:53;;;;;;;;;;;9.00;99.90;;;;;;5030180;28;19927;-74
2022/11/16 11:56:18;;;;;;;;;;;9.00;99.90;;;;;;5094425;28;19912;-74
2022/11/16 11:58:45;;;;;;;;;;;9.00;99.90;;;;;;5095333;28;20336;-74
2022/11/16 12:01:22;;;;;;;;;;;9.20;99.90;;;;;;5095526;28;19908;-74
2022/11/16 12:03:54;;;;;;;;;;;9.30;99.90;;;;;;5095402;28;19915;-74
2022/11/16 12:06:27;;;;;;;;;;;9.30;99.90;;;;;;5094711;28;19915;-74
2022/11/16 12:09:11;;;;;;;;;;;9.50;99.90;;;;;;5095547;28;19916;-74
2022/11/16 12:11:55;;;;;;;;;;;9.40;99.90;;;;;;5094866;28;19908;-74
2022/11/16 12:14:36;;;;;;;;;;;9.50;99.90;;;;;;5076618;28;19908;-74
2022/11/16 12:17:13;;;;;;;;;;;9.50;99.90;;;;;;5095123;28;19921;-74
2022/11/16 12:19:39;;;;;;;;;;;9.60;99.90;;;;;;5095036;28;19908;-74
2022/11/16 12:22:20;;;;;;;;;;;9.60;99.90;;;;;;5095055;28;20238;-74
2022/11/16 12:24:55;;;;;;;;;;;9.70;99.90;;;;;;5094608;28;20350;-74
2022/11/16 12:27:25;;;;;;;;;;;9.60;99.90;;;;;;5094441;28;20314;-74
2022/11/16 12:30:06;;;;;;;;;;;9.60;99.90;;;;;;5094504;28;19916;-74
2022/11/16 12:32:51;;;;;;;;;;;9.60;99.90;;;;;;5094490;28;19912;-76
2022/11/16 12:35:16;;;;;;;;;;;9.60;99.90;;;;;;5094437;28;20007;-76
2022/11/16 12:37:49;;;;;;;;;;;9.60;99.90;;;;;;5094567;28;20321;-76
2022/11/16 12:40:28;;;;;;;;;;;9.70;99.90;;;;;;5094490;28;19915;-75
2022/11/16 12:42:59;;;;;;;;;;;9.60;99.90;;;;;;5094649;28;19931;-76
2022/11/16 12:45:25;;;;;;;;;;;9.60;99.90;;;;;;5094112;28;19908;-77
2022/11/16 12:47:50;;;;;;;;;;;9.60;99.90;;;;;;5093995;28;20334;-76
2022/11/16 12:50:19;;;;;;;;;;;9.60;99.90;;;;;;5093905;28;19916;-76
2022/11/16 12:53:03;;;;;;;;;;;9.60;99.90;;;;;;5094075;28;19920;-76
2022/11/16 12:55:47;;;;;;;;;;;9.60;99.90;;;;;;5093468;28;20006;-76
2022/11/16 12:58:12;;;;;;;;;;;9.60;99.90;;;;;;5094000;28;19914;-77
2022/11/16 13:00:54;;;;;;;;;;;9.70;99.90;;;;;;5093481;28;19959;-74
2022/11/16 13:03:25;;;;;;;;;;;9.70;99.90;;;;;;5073187;28;19908;-76
2022/11/16 13:05:51;;;;;;;;;;;9.80;99.90;;;;;;5094227;28;20326;-76
2022/11/16 13:08:16;;;;;;;;;;;9.80;99.90;;;;;;5093313;28;19919;-75
2022/11/16 13:10:45;;;;;;;;;;;9.80;99.90;;;;;;5093799;28;20007;-76
2022/11/16 13:13:24;;;;;;;;;;;9.70;99.90;;;;;;5093195;28;20269;-76
2022/11/16 13:15:50;;;;;;;;;;;9.70;99.90;;;;;;5093175;28;20371;-76
2022/11/16 13:18:18;;;;;;;;;;;9.70;99.90;;;;;;5093357;28;19908;-75
2022/11/16 13:20:47;;;;;;;;;;;9.70;99.90;;;;;;5109135;28;19916;-76
2022/11/16 13:23:19;;;;;;;;;;;9.80;99.90;;;;;;5093519;28;19908;-76
2022/11/16 13:25:49;;;;;;;;;;;9.80;99.90;;;;;;5093511;28;19915;-76
2022/11/16 13:28:22;;;;;;;;;;;9.80;99.90;;;;;;5075166;28;19912;-76
2022/11/16 13:30:50;;;;;;;;;;;9.70;99.90;;;;;;5075553;28;19915;-76
2022/11/16 13:33:28;;;;;;;;;;;9.90;99.90;;;;;;5093295;28;19947;-75
2022/11/16 13:35:54;;;;;;;;;;;9.80;99.90;;;;;;5093057;28;19995;-76
2022/11/16 13:38:52;;;;;;;;;;;9.80;99.90;;;;;;5092470;28;19940;-75
2022/11/16 13:41:32;;;;;;;;;;;9.90;99.90;;;;;;5063323;28;20008;-75
2022/11/16 13:43:58;;;;;;;;;;;9.90;99.90;;;;;;5093599;28;20357;-75
2022/11/16 13:46:35;;;;;;;;;;;9.90;99.90;;;;;;5092995;28;19915;-75
2022/11/16 13:49:01;;;;;;;;;;;9.90;99.90;;;;;;5093555;28;19997;-75
2022/11/16 13:51:26;;;;;;;;;;;9.90;99.90;;;;;;5092892;28;20323;-76
2022/11/16 13:53:52;;;;;;;;;;;9.90;99.90;;;;;;5093327;28;19927;-75
2022/11/16 13:56:19;;;;;;;;;;;9.90;99.90;;;;;;5074720;28;20285;-74
2022/11/16 13:58:48;;;;;;;;;;;9.90;99.90;;;;;;5092806;28;20582;-75
2022/11/16 14:01:15;;;;;;;;;;;9.80;99.90;;;;;;5093076;28;19908;-76
2022/11/16 14:03:41;;;;;;;;;;;9.80;99.90;;;;;;5092754;28;19915;-76
2022/11/16 14:06:22;;;;;;;;;;;9.80;99.90;;;;;;5074818;28;19908;-76
2022/11/16 14:08:48;;;;;;;;;;;9.80;99.90;;;;;;5093097;28;19923;-76
2022/11/16 14:11:27;;;;;;;;;;;9.80;99.90;;;;;;5075095;28;20303;-75
2022/11/16 14:13:52;;;;;;;;;;;9.80;99.90;;;;;;5092990;28;19912;-75
2022/11/16 14:16:21;;;;;;;;;;;9.80;99.90;;;;;;5092636;28;19908;-75
2022/11/16 14:18:57;;;;;;;;;;;9.80;99.90;;;;;;5093336;28;20418;-76
2022/11/16 14:21:35;;;;;;;;;;;9.80;99.90;;;;;;5092442;28;19908;-75
2022/11/16 14:24:12;;;;;;;;;;;9.80;99.90;;;;;;5092987;28;19909;-75
2022/11/16 14:26:50;;;;;;;;;;;9.80;99.90;;;;;;5092415;28;19935;-75
2022/11/16 14:29:27;;;;;;;;;;;9.80;99.90;;;;;;5092833;28;19916;-75
2022/11/16 14:31:54;;;;;;;;;;;9.80;99.90;;;;;;5092555;28;20380;-75
2022/11/16 14:34:31;;;;;;;;;;;9.80;99.90;;;;;;5092205;28;20357;-74
2022/11/16 14:37:00;;;;;;;;;;;9.80;99.90;;;;;;5092804;28;20006;-75
2022/11/16 14:39:28;;;;;;;;;;;9.80;99.90;;;;;;5074329;28;20269;-74
2022/11/16 14:41:56;;;;;;;;;;;9.80;99.90;;;;;;5092568;28;19961;-75
2022/11/16 14:44:24;;;;;;;;;;;9.80;99.90;;;;;;5091493;28;20026;-75
2022/11/16 14:46:50;;;;;;;;;;;9.90;99.90;;;;;;5092723;28;20311;-74
2022/11/16 14:49:16;;;;;;;;;;;9.80;99.90;;;;;;5096145;28;19916;-74
2022/11/16 14:51:47;;;;;;;;;;;9.80;99.90;;;;;;5096405;28;19919;-75
2022/11/16 14:54:28;;;;;;;;;;;9.70;99.90;;;;;;5095888;28;19919;-74
2022/11/16 14:57:04;;;;;;;;;;;9.80;99.90;;;;;;5096949;28;20350;-73
2022/11/16 14:59:30;;;;;;;;;;;9.70;99.90;;;;;;5096250;28;19908;-74
2022/11/16 15:01:56;;;;;;;;;;;9.70;99.90;;;;;;5096367;28;19915;-73
2022/11/16 15:04:23;;;;;;;;;;;9.70;99.90;;;;;;5095628;28;20090;-74
2022/11/16 15:06:57;;;;;;;;;;;9.60;99.90;;;;;;5096171;28;19915;-74
2022/11/16 15:09:32;;;;;;;;;;;9.60;99.90;;;;;;5095777;28;19916;-73
2022/11/16 15:14:52;;;;;;;;;;;9.60;99.90;;;;;;5095947;28;19946;-74
2022/11/16 15:17:19;;;;;;;;;;;9.60;99.90;;;;;;5111824;28;20037;-74
2022/11/16 15:19:58;;;;;;;;;;;9.50;99.90;;;;;;5096046;28;19908;-74
2022/11/16 15:22:24;;;;;;;;;;;9.60;99.90;;;;;;5095756;28;19908;-74
2022/11/16 15:24:55;;;;;;;;;;;9.60;99.90;;;;;;5096156;28;20260;-74
2022/11/16 15:27:23;;;;;;;;;;;9.60;99.90;;;;;;5095720;28;19915;-74
2022/11/16 15:29:49;;;;;;;;;;;9.50;99.90;;;;;;5095993;28;19920;-73
2022/11/16 15:32:15;;;;;;;;;;;9.50;99.90;;;;;;5095920;28;19915;-75